This is the latest recevied weather packets stored in our database for station/object DW2488. If no packets are shown the sender has not sent any weather packets the latest 1 day(s).
| Time | Temp. | Humidity | Pressure | Rain* | Wind** | Luminosity | Snow |
|---|---|---|---|---|---|---|---|
| 1777977100 | 12.78° C | 75% | 1021.2 hPa | 0 mm | 0.45 m/s, 0° | 0 W/m² | - |
| 1777976199 | 13.33° C | 74% | 1021 hPa | 0 mm | 0.89 m/s, 0° | 0 W/m² | - |
| 1777975291 | 13.33° C | 73% | 1020.9 hPa | 0 mm | 1.34 m/s, 0° | 0 W/m² | - |
| 1777974385 | 13.89° C | 71% | 1020.5 hPa | 0 mm | 0.89 m/s, 0° | 0 W/m² | - |
| 1777973477 | 13.89° C | 71% | 1020.4 hPa | 0 mm | 0.89 m/s, 0° | 0 W/m² | - |
| 1777972577 | 14.44° C | 69% | 1020.2 hPa | 0 mm | 0.89 m/s, 0° | 0 W/m² | - |
| 1777971680 | 15° C | 67% | 1020.1 hPa | 0 mm | 0.89 m/s, 0° | 0 W/m² | - |
| 1777970775 | 15.56° C | 66% | 1019.9 hPa | 0 mm | 0.45 m/s, 0° | 0 W/m² | - |
| 1777969871 | 15.56° C | 64% | 1019.7 hPa | 0 mm | 0 m/s | 0 W/m² | - |
| 1777968971 | 16.67° C | 62% | 1019.5 hPa | 0 mm | 0.89 m/s, 0° | 0 W/m² | - |
| 1777968065 | 16.67° C | 60% | 1019.2 hPa | 0 mm | 0.89 m/s, 0° | 0 W/m² | - |
| 1777967159 | 17.78° C | 56% | 1019.1 hPa | 0 mm | 0.89 m/s, 0° | 0 W/m² | - |
| 1777966259 | 18.89° C | 50% | 1018.8 hPa | 0 mm | 0.89 m/s, 0° | 0 W/m² | - |
| 1777965355 | 20° C | 49% | 1018.6 hPa | 0 mm | 0.45 m/s, 281° | 0 W/m² | - |
| 1777964473 | 21.11° C | 45% | 1018.4 hPa | 0 mm | 0.89 m/s, 280° | 9 W/m² | - |
| 1777963545 | 22.22° C | 42% | 1018.2 hPa | 0 mm | 1.79 m/s, 271° | 16 W/m² | - |
| 1777962643 | 22.78° C | 42% | 1018 hPa | 0 mm | 1.34 m/s, 0° | 44 W/m² | - |
| 1777961739 | 22.78° C | 43% | 1018 hPa | 0 mm | 1.79 m/s, 0° | 88 W/m² | - |
| 1777960836 | 23.33° C | 40% | 1017.9 hPa | 0 mm | 1.34 m/s, 0° | 139 W/m² | - |
| 1777959930 | 23.33° C | 41% | 1017.8 hPa | 0 mm | 1.34 m/s, 0° | 202 W/m² | - |
| 1777959030 | 23.33° C | 40% | 1017.8 hPa | 0 mm | 2.24 m/s, 0° | 253 W/m² | - |
| 1777958129 | 23.33° C | 40% | 1017.7 hPa | 0 mm | 1.79 m/s, 0° | 297 W/m² | - |
* Rain latest hour (hover to see other rain measurements)
** Current wind speed in m/s (hover to see current wind gust speed)